Time;durP1;ratioP1;P1;durP2;ratioP2;P2;SDS_P1;SDS_P2;PMS_P1;PMS_P2;Temp;Humidity;BMP_temperature;BMP_pressure;BME280_temperature;BME280_humidity;BME280_pressure;Samples;Min_cycle;Max_cycle;Signal;HPM_P1;HPM_P2
2022/05/24 00:01:52;;;;;;;21.00;17.40;;;;;;;14.50;94.03;100054.66;5191511;28;20667;-73
2022/05/24 00:04:23;;;;;;;21.13;17.00;;;;;;;14.50;93.50;100042.28;5188627;28;20548;-73
2022/05/24 00:06:55;;;;;;;18.57;16.23;;;;;;;14.42;92.93;100034.25;5172529;28;20055;-73
2022/05/24 00:09:26;;;;;;;18.13;16.23;;;;;;;14.40;93.17;100036.19;5179367;28;20035;-73
2022/05/24 00:11:57;;;;;;;17.00;15.13;;;;;;;14.37;92.45;100036.47;5171552;28;20093;-73
2022/05/24 00:17:20;;;;;;;16.57;14.47;;;;;;;14.27;93.21;100032.03;5177928;28;20043;-74
2022/05/24 00:19:52;;;;;;;16.43;13.97;;;;;;;14.20;93.66;100035.31;5185276;28;20022;-73
2022/05/24 00:22:23;;;;;;;16.37;14.53;;;;;;;14.28;93.30;100038.09;5191967;28;20042;-74
2022/05/24 00:24:56;;;;;;;19.00;14.77;;;;;;;14.24;93.11;100034.09;5174328;28;20482;-73
2022/05/24 00:27:29;;;;;;;15.80;14.00;;;;;;;14.23;93.64;100041.16;5178090;28;20030;-74
2022/05/24 00:30:00;;;;;;;19.00;14.23;;;;;;;14.21;92.86;100043.09;5190917;28;20440;-73
2022/05/24 00:32:32;;;;;;;18.20;13.93;;;;;;;14.17;93.52;100038.25;5177963;28;20117;-73
2022/05/24 00:35:03;;;;;;;19.73;13.43;;;;;;;13.98;94.08;100039.88;5173123;28;20118;-74
2022/05/24 00:37:37;;;;;;;15.73;13.27;;;;;;;14.13;92.11;100037.69;5171822;28;20070;-73
2022/05/24 00:40:12;;;;;;;18.20;12.30;;;;;;;14.11;91.07;100035.19;5189659;28;20089;-73
2022/05/24 00:42:46;;;;;;;14.63;10.87;;;;;;;13.89;91.20;100020.44;5190020;28;20038;-73
2022/05/24 00:45:29;;;;;;;18.17;12.05;;;;;;;13.98;91.33;100038.03;5194336;28;20023;-73
2022/05/24 00:48:15;;;;;;;19.00;12.53;;;;;;;13.97;90.20;100031.13;5187906;28;20042;-73
2022/05/24 00:50:48;;;;;;;20.13;10.47;;;;;;;13.86;90.52;100028.63;5176549;28;20483;-73
2022/05/24 00:53:29;;;;;;;16.03;10.53;;;;;;;13.87;90.19;100039.00;5182805;28;20113;-73
2022/05/24 00:56:13;;;;;;;17.80;11.27;;;;;;;13.83;90.55;100040.22;5190945;28;20109;-74
2022/05/24 00:59:15;;;;;;;14.27;10.32;;;;;;;13.89;90.13;100030.97;5191757;28;20037;-73
2022/05/24 01:01:47;;;;;;;19.03;12.17;;;;;;;13.75;90.46;100034.81;5178596;28;20502;-73
2022/05/24 01:04:19;;;;;;;17.07;11.03;;;;;;;13.69;91.13;100038.78;5170873;28;20022;-73
2022/05/24 01:06:51;;;;;;;17.40;10.83;;;;;;;13.48;91.34;100020.38;5176791;28;20030;-74
2022/05/24 01:09:28;;;;;;;15.87;10.47;;;;;;;13.67;90.64;100035.44;5178597;28;20578;-73
2022/05/24 01:12:08;;;;;;;15.97;10.13;;;;;;;13.62;90.43;100033.22;5178923;28;20030;-73
2022/05/24 01:14:40;;;;;;;15.23;9.20;;;;;;;13.58;90.24;100021.28;5172682;28;20078;-73
2022/05/24 01:17:11;;;;;;;16.53;10.70;;;;;;;13.59;90.21;100032.66;5170025;28;20446;-74
2022/05/24 01:19:46;;;;;;;12.43;8.83;;;;;;;13.46;90.45;100019.69;5171630;28;20482;-73
2022/05/24 01:22:27;;;;;;;16.13;9.13;;;;;;;13.52;90.29;100022.66;5176922;28;20078;-73
2022/05/24 01:25:06;;;;;;;14.53;8.80;;;;;;;13.51;90.60;100023.59;5169001;28;20047;-74
2022/05/24 01:27:39;;;;;;;12.60;8.13;;;;;;;13.44;89.87;100035.59;5165560;28;20041;-74
2022/05/24 01:30:11;;;;;;;13.87;8.10;;;;;;;13.40;89.63;100049.97;5170513;28;20058;-73
2022/05/24 01:38:24;;;;;;;14.27;8.30;;;;;;;13.18;89.13;100036.00;5172132;28;20402;-74
2022/05/24 01:40:55;;;;;;;15.67;7.47;;;;;;;13.26;89.18;100045.88;5167731;28;20026;-74
2022/05/24 01:43:27;;;;;;;10.97;6.77;;;;;;;13.18;90.33;100047.34;5172218;28;20543;-74
2022/05/24 01:46:02;;;;;;;15.50;7.63;;;;;;;13.26;89.53;100044.09;5181629;28;20105;-75
2022/05/24 01:48:42;;;;;;;9.67;5.80;;;;;;;13.21;88.27;100040.19;5176248;28;20034;-75
2022/05/24 01:51:17;;;;;;;7.23;5.53;;;;;;;13.18;89.04;100041.25;5175872;28;20034;-75
2022/05/24 01:53:53;;;;;;;13.80;5.77;;;;;;;13.15;89.25;100044.16;5190147;28;20110;-74
2022/05/24 01:56:35;;;;;;;11.20;5.17;;;;;;;13.17;88.41;100036.97;5190326;28;20064;-75
2022/05/24 01:59:08;;;;;;;12.13;6.23;;;;;;;13.12;88.21;100040.00;5189800;28;20026;-75
2022/05/24 02:01:55;;;;;;;10.97;5.10;;;;;;;13.21;87.75;100033.13;5191342;28;20034;-74
2022/05/24 02:04:30;;;;;;;11.10;5.53;;;;;;;13.04;88.50;100031.91;5182093;28;20042;-74
2022/05/24 02:07:15;;;;;;;12.60;4.67;;;;;;;13.08;87.41;100025.44;5171384;28;20047;-75
2022/05/24 02:09:48;;;;;;;;;;;;;;;13.25;85.97;100029.25;5171187;28;20492;-75
2022/05/24 02:12:45;;;;;;;12.33;4.87;;;;;;;12.97;87.71;100044.72;5168823;28;19933;-74
2022/05/24 02:15:26;;;;;;;12.97;5.67;;;;;;;12.85;88.59;100049.19;5168249;28;20393;-75
2022/05/24 02:18:08;;;;;;;15.20;5.40;;;;;;;12.85;88.45;100041.31;5176308;28;20031;-74
2022/05/24 02:20:41;;;;;;;15.57;5.10;;;;;;;12.95;85.78;100042.22;5170704;28;20454;-74
2022/05/24 02:23:17;;;;;;;12.57;3.43;;;;;;;12.77;86.44;100033.25;5169115;28;20085;-74
2022/05/24 02:25:57;;;;;;;11.20;3.93;;;;;;;12.94;85.96;100053.72;5174946;28;20038;-75
2022/05/24 02:28:30;;;;;;;9.27;3.53;;;;;;;12.78;86.64;100050.66;5179938;28;20038;-74
2022/05/24 02:31:08;;;;;;;12.90;3.77;;;;;;;12.80;86.51;100036.44;5181991;28;20039;-75
2022/05/24 02:33:40;;;;;;;10.33;3.50;;;;;;;12.85;86.54;100045.72;5169614;28;20484;-74
2022/05/24 02:36:13;;;;;;;10.67;3.10;;;;;;;12.81;86.33;100035.47;5184181;28;20035;-75
2022/05/24 02:38:45;;;;;;;10.27;4.47;;;;;;;12.78;86.44;100045.41;5190477;28;20026;-75
2022/05/24 02:41:28;;;;;;;9.17;2.80;;;;;;;12.78;86.74;100050.66;5180573;28;20035;-75
2022/05/24 02:44:08;;;;;;;7.30;3.40;;;;;;;12.90;86.43;100048.81;5184468;28;20027;-75
2022/05/24 02:46:42;;;;;;;9.23;2.87;;;;;;;12.83;86.55;100048.50;5171789;28;20417;-74
2022/05/24 02:49:14;;;;;;;9.85;2.95;;;;;;;12.83;86.43;100037.97;5183440;28;20075;-74
2022/05/24 02:51:45;;;;;;;9.90;3.10;;;;;;;12.87;85.89;100043.81;5170675;28;20079;-75
2022/05/24 02:54:16;;;;;;;12.83;3.67;;;;;;;12.77;86.35;100051.63;5169437;28;20085;-75
2022/05/24 02:56:48;;;;;;;12.97;3.30;;;;;;;12.76;86.05;100063.13;5170520;28;20057;-75
2022/05/24 02:59:19;;;;;;;10.60;3.57;;;;;;;12.76;85.96;100048.16;5175753;28;20042;-74
2022/05/24 03:01:50;;;;;;;11.97;3.30;;;;;;;12.69;86.81;100037.31;5171293;28;20057;-75
2022/05/24 03:04:21;;;;;;;9.10;3.00;;;;;;;12.70;86.72;100022.41;5183386;28;20034;-74
2022/05/24 03:09:42;;;;;;;10.83;3.77;;;;;;;12.68;87.42;100042.72;5169155;28;20141;-74
2022/05/24 03:15:04;;;;;;;8.67;2.77;;;;;;;12.63;86.98;100032.59;5173271;28;20080;-74
2022/05/24 03:17:35;;;;;;;10.97;3.30;;;;;;;12.60;86.98;100043.34;5175570;28;20381;-74
2022/05/24 03:20:07;;;;;;;11.37;3.73;;;;;;;12.60;88.19;100047.75;5178606;28;20022;-74
2022/05/24 03:22:38;;;;;;;10.03;3.70;;;;;;;12.60;87.60;100042.50;5173779;28;20084;-74
2022/05/24 03:25:10;;;;;;;9.67;3.50;;;;;;;12.52;87.18;100048.38;5171976;28;20568;-74
2022/05/24 03:27:41;;;;;;;11.50;2.93;;;;;;;12.47;87.74;100040.88;5180292;28;20519;-74
2022/05/24 03:30:13;;;;;;;9.13;3.57;;;;;;;12.53;87.91;100056.13;5190249;28;20400;-74
2022/05/24 03:32:45;;;;;;;10.37;2.90;;;;;;;12.47;88.53;100056.63;5178345;28;20031;-75
2022/05/24 03:35:16;;;;;;;12.30;4.27;;;;;;;12.46;88.71;100065.47;5191914;28;20493;-74
2022/05/24 03:37:47;;;;;;;11.67;3.33;;;;;;;12.46;87.85;100057.59;5186847;28;20033;-74
2022/05/24 03:40:19;;;;;;;10.83;4.13;;;;;;;12.50;87.89;100051.13;5172932;28;20030;-74
2022/05/24 03:42:54;;;;;;;11.57;4.20;;;;;;;12.44;88.12;100043.75;5188351;28;20517;-74
2022/05/24 03:45:26;;;;;;;14.00;4.53;;;;;;;12.46;88.36;100057.59;5193518;28;20023;-74
2022/05/24 03:47:57;;;;;;;14.43;5.73;;;;;;;12.52;88.56;100051.84;5186622;28;20029;-74
2022/05/24 03:50:28;;;;;;;14.43;4.13;;;;;;;12.50;88.09;100048.50;5191872;28;20033;-73
2022/05/24 03:52:59;;;;;;;11.23;4.37;;;;;;;12.46;87.79;100061.03;5180947;28;20034;-73
2022/05/24 03:55:31;;;;;;;10.37;4.10;;;;;;;12.43;87.61;100078.84;5172312;28;20030;-73
2022/05/24 03:58:02;;;;;;;10.63;4.57;;;;;;;12.40;87.82;100092.22;5175713;28;20027;-74
2022/05/24 04:00:36;;;;;;;12.97;4.00;;;;;;;12.43;87.68;100079.69;5174458;28;20089;-74
2022/05/24 04:03:08;;;;;;;7.03;3.40;;;;;;;12.39;88.30;100099.25;5172399;28;20026;-74
2022/05/24 04:05:40;;;;;;;8.57;3.90;;;;;;;12.31;88.06;100096.41;5172475;28;20019;-74
2022/05/24 04:08:12;;;;;;;8.40;3.27;;;;;;;12.40;88.97;100115.84;5181581;28;20489;-74
2022/05/24 04:10:43;;;;;;;11.27;3.93;;;;;;;12.43;87.84;100115.59;5178187;28;20027;-74
2022/05/24 04:13:14;;;;;;;12.63;3.40;;;;;;;12.42;88.20;100119.19;5171161;28;20027;-74
2022/05/24 04:15:46;;;;;;;16.53;3.27;;;;;;;12.43;88.65;100126.09;5178683;28;20539;-74
2022/05/24 04:18:17;;;;;;;13.20;3.90;;;;;;;12.48;87.97;100126.56;5177261;28;20153;-73
2022/05/24 04:20:48;;;;;;;6.23;2.80;;;;;;;12.46;88.55;100115.38;5172393;28;20039;-74
2022/05/24 04:23:21;;;;;;;12.47;2.93;;;;;;;12.49;87.82;100086.25;5176616;28;20591;-74
2022/05/24 04:25:55;;;;;;;9.37;3.17;;;;;;;12.45;87.89;100076.91;5189628;28;20037;-74
2022/05/24 04:28:26;;;;;;;13.77;2.85;;;;;;;12.36;88.13;100067.19;5178886;28;20019;-74
2022/05/24 04:30:58;;;;;;;8.97;2.80;;;;;;;12.45;88.22;100088.28;5173200;28;20042;-73
2022/05/24 04:33:29;;;;;;;11.97;3.53;;;;;;;12.45;87.86;100087.44;5171872;28;20655;-74
2022/05/24 04:36:01;;;;;;;10.00;3.30;;;;;;;12.44;87.21;100117.28;5171669;28;20027;-73
2022/05/24 04:38:32;;;;;;;14.33;3.63;;;;;;;12.36;88.35;100132.81;5176278;28;20049;-74
2022/05/24 04:43:53;;;;;;;8.77;3.27;;;;;;;12.27;88.21;100119.44;5172375;28;20043;-73
2022/05/24 04:46:24;;;;;;;12.77;3.87;;;;;;;12.17;89.16;100108.84;5176957;28;20836;-74
2022/05/24 04:48:55;;;;;;;11.77;2.90;;;;;;;12.30;89.26;100121.84;5180281;28;20370;-74
2022/05/24 04:51:27;;;;;;;11.83;3.60;;;;;;;12.36;89.11;100130.19;5177195;28;20717;-74
2022/05/24 04:53:58;;;;;;;11.60;3.00;;;;;;;12.31;88.72;100138.41;5170082;28;20584;-74
2022/05/24 04:56:29;;;;;;;10.27;2.70;;;;;;;12.27;89.06;100137.00;5183453;28;20033;-74
2022/05/24 04:59:00;;;;;;;7.97;3.10;;;;;;;12.29;88.15;100138.53;5188776;28;20050;-73
2022/05/24 05:01:32;;;;;;;9.57;2.60;;;;;;;12.27;88.26;100153.56;5175422;28;20125;-74
2022/05/24 05:04:03;;;;;;;9.67;2.73;;;;;;;12.31;87.90;100160.25;5178037;28;20030;-74
2022/05/24 05:06:35;;;;;;;10.20;3.17;;;;;;;12.34;87.84;100167.03;5191738;28;20023;-74
2022/05/24 05:09:06;;;;;;;7.53;3.10;;;;;;;12.36;87.84;100164.31;5183886;28;20100;-74
2022/05/24 05:11:38;;;;;;;9.23;2.57;;;;;;;12.36;87.63;100177.47;5187995;28;20429;-74
2022/05/24 05:14:10;;;;;;;9.70;2.50;;;;;;;12.31;87.84;100183.03;5186509;28;20420;-74
2022/05/24 05:16:41;;;;;;;11.07;2.60;;;;;;;12.39;87.20;100195.59;5180715;28;20038;-73
2022/05/24 05:19:13;;;;;;;11.30;2.57;;;;;;;12.34;87.76;100178.41;5183996;28;20034;-74
2022/05/24 05:21:45;;;;;;;10.97;2.93;;;;;;;12.30;87.69;100174.34;5180986;28;20033;-74
2022/05/24 05:24:16;;;;;;;7.00;2.43;;;;;;;12.30;87.33;100174.34;5190323;28;20050;-74
2022/05/24 05:26:48;;;;;;;12.03;3.27;;;;;;;12.33;87.35;100170.66;5191447;28;20033;-75
2022/05/24 05:31:16;;;;;;;10.50;2.90;;;;;;;12.30;88.61;100184.00;5190719;28;20057;-74
2022/05/24 05:32:17;;;;;;;10.10;3.27;;;;;;;12.37;87.33;100179.13;5190335;28;20505;-74
2022/05/24 05:34:49;;;;;;;9.03;2.40;;;;;;;12.27;87.10;100171.94;5189527;28;20114;-74
2022/05/24 05:37:20;;;;;;;11.00;2.93;;;;;;;12.18;87.21;100162.19;5189452;28;20124;-74
2022/05/24 05:39:52;;;;;;;10.20;3.03;;;;;;;12.20;87.58;100168.16;5188362;28;20068;-74
2022/05/24 05:42:24;;;;;;;12.13;2.93;;;;;;;12.32;88.22;100169.78;5185995;28;20031;-74
2022/05/24 05:44:56;;;;;;;11.20;3.27;;;;;;;12.27;88.20;100173.75;5162585;28;20045;-74
2022/05/24 05:47:27;;;;;;;14.00;2.50;;;;;;;12.31;87.42;100168.13;5177946;28;20472;-74
2022/05/24 05:49:58;;;;;;;10.57;3.33;;;;;;;12.32;86.72;100174.22;5163592;28;20508;-74
2022/05/24 05:52:30;;;;;;;16.87;2.47;;;;;;;12.31;86.19;100190.94;5166454;28;20011;-74
2022/05/24 05:55:01;;;;;;;14.03;2.63;;;;;;;12.29;86.08;100192.81;5171828;28;20647;-74
2022/05/24 05:57:32;;;;;;;11.23;2.93;;;;;;;12.27;85.23;100206.09;5166257;28;20038;-74
2022/05/24 06:00:05;;;;;;;21.23;3.20;;;;;;;12.22;85.53;100201.19;5170096;28;20043;-74
2022/05/24 06:02:37;;;;;;;10.07;3.23;;;;;;;12.18;86.05;100212.06;5163156;28;20101;-74
2022/05/24 06:05:10;;;;;;;7.47;3.40;;;;;;;12.26;86.42;100225.41;5169950;28;20039;-73
2022/05/24 06:07:41;;;;;;;6.20;2.37;;;;;;;12.34;85.90;100217.78;5166620;28;20031;-73
2022/05/24 06:10:12;;;;;;;5.50;2.53;;;;;;;12.34;85.18;100217.78;5169285;28;20097;-74
2022/05/24 06:12:44;;;;;;;9.83;2.27;;;;;;;12.37;85.81;100224.59;5169751;28;20046;-74
2022/05/24 06:15:15;;;;;;;9.97;2.20;;;;;;;12.46;85.50;100231.75;5167852;28;20050;-75
2022/05/24 06:17:49;;;;;;;7.60;2.03;;;;;;;12.48;85.72;100234.25;5170779;28;20576;-74
2022/05/24 06:20:24;;;;;;;12.50;2.40;;;;;;;12.58;84.43;100229.13;5169246;28;20034;-76
2022/05/24 06:22:57;;;;;;;9.10;3.15;;;;;;;12.64;85.02;100228.63;5170884;28;20442;-75
2022/05/24 06:25:30;;;;;;;10.73;2.50;;;;;;;12.76;83.95;100232.09;5168676;28;20442;-74
2022/05/24 06:28:01;;;;;;;7.33;2.30;;;;;;;12.81;82.82;100226.50;5166079;28;20141;-73
2022/05/24 06:30:32;;;;;;;11.57;2.33;;;;;;;12.85;82.64;100230.53;5152060;28;20738;-74
2022/05/24 06:33:04;;;;;;;9.60;2.83;;;;;;;12.97;82.93;100222.63;5163729;28;20134;-74
2022/05/24 06:35:38;;;;;;;6.23;1.93;;;;;;;13.04;85.20;100218.53;5167833;28;20034;-73
2022/05/24 06:38:09;;;;;;;8.02;2.67;;;;;;;13.18;82.15;100233.19;5177174;28;20066;-73
2022/05/24 06:40:41;;;;;;;7.40;1.93;;;;;;;13.17;81.46;100227.13;5182316;28;20541;-73
2022/05/24 06:43:13;;;;;;;9.10;2.50;;;;;;;13.26;81.19;100235.22;5185141;28;20038;-74
2022/05/24 06:45:45;;;;;;;8.73;2.37;;;;;;;13.35;80.50;100244.16;5178334;28;20023;-73
2022/05/24 06:48:16;;;;;;;7.57;1.67;;;;;;;13.43;79.13;100249.63;5190820;28;20477;-73
2022/05/24 06:50:48;;;;;;;10.03;2.40;;;;;;;13.55;77.91;100255.69;5191948;28;20062;-73
2022/05/24 06:53:19;;;;;;;5.90;2.00;;;;;;;13.63;77.34;100255.06;5193298;28;20059;-74
2022/05/24 06:55:50;;;;;;;8.73;2.47;;;;;;;13.81;76.41;100257.16;5182268;28;20054;-73
2022/05/24 06:58:21;;;;;;;8.50;1.80;;;;;;;13.81;75.25;100257.16;5185276;28;20045;-74
2022/05/24 07:03:44;;;;;;;9.03;2.07;;;;;;;13.85;73.55;100254.13;5185665;28;20079;-71
2022/05/24 07:06:16;;;;;;;7.03;1.87;;;;;;;13.78;75.10;100281.91;5182699;28;20561;-75
2022/05/24 07:08:48;;;;;;;10.27;2.47;;;;;;;14.06;74.98;100270.88;5191861;28;20131;-73
2022/05/24 07:11:21;;;;;;;6.27;1.13;;;;;;;14.27;72.09;100268.22;5192300;28;20010;-74
2022/05/24 07:13:54;;;;;;;7.60;2.40;;;;;;;14.63;71.28;100278.38;5190131;28;20035;-75
2022/05/24 07:16:25;;;;;;;9.73;2.27;;;;;;;14.45;71.52;100276.34;5186057;28;20982;-74
2022/05/24 07:18:56;;;;;;;8.17;2.13;;;;;;;14.66;71.22;100272.81;5191525;28;20099;-75
2022/05/24 07:21:27;;;;;;;8.23;1.97;;;;;;;14.63;70.46;100283.63;5183622;28;20026;-75
2022/05/24 07:23:59;;;;;;;8.40;1.83;;;;;;;14.66;70.63;100283.34;5179995;28;20049;-75
2022/05/24 07:26:30;;;;;;;7.67;1.83;;;;;;;14.98;70.55;100282.41;5185277;28;20076;-73
2022/05/24 07:29:02;;;;;;;7.97;1.63;;;;;;;15.66;69.57;100285.25;5190745;28;20027;-75
2022/05/24 07:31:33;;;;;;;7.43;1.50;;;;;;;15.70;66.42;100293.72;5184809;28;20041;-74
2022/05/24 07:34:05;;;;;;;4.77;1.60;;;;;;;15.57;66.21;100301.91;5187313;28;20481;-74
2022/05/24 07:36:36;;;;;;;6.37;1.50;;;;;;;15.46;66.53;100298.44;5182826;28;20041;-74
2022/05/24 07:39:07;;;;;;;10.23;2.00;;;;;;;15.30;67.95;100303.44;5180348;28;20031;-76
2022/05/24 07:47:19;;;;;;;4.97;1.23;;;;;;;15.79;63.55;100299.97;5187980;28;20030;-71
2022/05/24 07:49:50;;;;;;;3.93;1.27;;;;;;;15.68;64.54;100303.59;5192341;28;20023;-71
2022/05/24 07:52:21;;;;;;;4.60;1.17;;;;;;;15.62;64.30;100306.78;5184640;28;20034;-71
2022/05/24 07:54:53;;;;;;;7.97;1.60;;;;;;;15.54;62.34;100318.03;5189789;28;20489;-74
2022/05/24 07:57:24;;;;;;;7.23;1.50;;;;;;;15.42;63.63;100304.97;5188105;28;20018;-73
2022/05/24 07:59:55;;;;;;;9.27;1.60;;;;;;;15.29;64.34;100314.97;5189349;28;20022;-75
2022/05/24 08:02:26;;;;;;;7.23;1.50;;;;;;;15.16;64.82;100320.47;5191456;28;20026;-74
2022/05/24 08:04:58;;;;;;;8.33;2.23;;;;;;;15.30;65.32;100313.97;5189902;28;20151;-76
2022/05/24 08:07:29;;;;;;;4.60;1.63;;;;;;;15.41;65.19;100313.84;5189974;28;20026;-76
2022/05/24 08:10:01;;;;;;;8.07;1.40;;;;;;;15.55;64.90;100330.28;5189141;28;20181;-76
2022/05/24 08:12:32;;;;;;;6.03;1.63;;;;;;;15.67;62.79;100318.63;5191248;28;20024;-74
2022/05/24 08:15:05;;;;;;;7.23;1.57;;;;;;;15.57;62.27;100333.59;5184442;28;20047;-78
2022/05/24 08:17:36;;;;;;;6.80;1.90;;;;;;;15.56;62.99;100331.94;5181308;28;20031;-76
2022/05/24 08:20:10;;;;;;;5.83;1.97;;;;;;;16.20;61.77;100324.44;5190606;28;20033;-76
2022/05/24 08:22:42;;;;;;;6.93;2.67;;;;;;;16.78;58.81;100328.84;5182888;28;20034;-77
2022/05/24 08:25:14;;;;;;;6.60;1.83;;;;;;;16.84;58.72;100338.84;5181933;28;20027;-73
2022/05/24 08:27:46;;;;;;;5.30;1.63;;;;;;;16.59;57.80;100338.53;5190044;28;20026;-75
2022/05/24 08:30:18;;;;;;;6.13;2.13;;;;;;;16.44;57.57;100335.50;5191001;28;20076;-76
2022/05/24 08:32:50;;;;;;;3.80;1.80;;;;;;;16.32;60.38;100348.03;5190895;28;20050;-74
2022/05/24 08:35:22;;;;;;;7.50;1.60;;;;;;;16.30;60.02;100360.56;5189643;28;20022;-76
2022/05/24 08:37:53;;;;;;;5.07;2.10;;;;;;;16.37;60.92;100356.38;5190198;28;20018;-73
2022/05/24 08:40:24;;;;;;;3.33;1.40;;;;;;;16.27;60.29;100350.25;5190037;28;20038;-74
2022/05/24 08:43:11;;;;;;;6.93;1.80;;;;;;;16.20;60.61;100363.22;5191367;28;20047;-76
2022/05/24 08:49:22;;;;;;;5.32;1.38;;;;;;;16.05;60.86;100382.16;5179002;28;20023;-75
2022/05/24 08:51:59;;;;;;;6.97;1.40;;;;;;;15.88;60.22;100382.81;5180448;28;20054;-75
2022/05/24 08:54:43;;;;;;;4.73;1.70;;;;;;;15.69;61.10;100387.09;5177755;28;20045;-74
2022/05/24 08:57:36;;;;;;;7.20;1.27;;;;;;;15.53;61.71;100395.53;5180096;28;20393;-74
2022/05/24 09:00:17;;;;;;;4.47;1.20;;;;;;;15.47;61.49;100386.34;5180129;28;20045;-76
2022/05/24 09:02:48;;;;;;;2.60;0.90;;;;;;;15.44;61.58;100403.31;5179217;28;20038;-74
2022/05/24 09:05:25;;;;;;;6.87;1.60;;;;;;;15.34;63.19;100402.44;5181879;28;20044;-74
2022/05/24 09:08:18;;;;;;;11.10;1.53;;;;;;;15.50;61.51;100407.19;5179793;28;20038;-72
2022/05/24 09:10:59;;;;;;;4.33;1.00;;;;;;;15.35;62.21;100409.38;5182858;28;20092;-71
2022/05/24 09:13:51;;;;;;;5.17;1.00;;;;;;;15.31;61.64;100415.88;5183100;28;20473;-71
2022/05/24 09:16:42;;;;;;;3.13;1.90;;;;;;;15.46;62.52;100414.53;5180815;28;20046;-73
2022/05/24 09:19:23;;;;;;;5.30;1.37;;;;;;;15.68;61.30;100425.00;5181705;28;20031;-72
2022/05/24 09:21:55;;;;;;;3.93;1.80;;;;;;;15.68;60.32;100422.38;5178990;28;20493;-72
2022/05/24 09:24:45;;;;;;;5.27;2.00;;;;;;;15.81;60.12;100419.50;5179697;28;20125;-74
2022/05/24 09:27:22;;;;;;;3.93;1.80;;;;;;;15.80;59.74;100433.66;5187673;28;20412;-77
2022/05/24 09:29:53;;;;;;;8.40;1.90;;;;;;;15.68;59.33;100436.41;5179021;28;20022;-75
2022/05/24 09:32:36;;;;;;;4.63;1.80;;;;;;;15.69;59.67;100446.00;5178515;28;20564;-77
2022/05/24 09:35:16;;;;;;;7.20;1.73;;;;;;;15.63;60.70;100435.16;5187644;28;20084;-76
2022/05/24 09:38:01;;;;;;;2.83;1.50;;;;;;;15.71;60.18;100441.41;5190160;28;20058;-77
2022/05/24 09:40:54;;;;;;;5.37;1.73;;;;;;;15.81;60.72;100448.53;5189527;28;20030;-76
2022/05/24 09:43:33;;;;;;;4.00;1.60;;;;;;;16.03;60.47;100454.56;5184244;28;20023;-75
2022/05/24 09:46:18;;;;;;;2.63;1.87;;;;;;;16.28;59.89;100447.91;5185591;28;20011;-75
2022/05/24 09:49:03;;;;;;;5.30;1.97;;;;;;;16.69;58.99;100460.09;5180605;28;20046;-75
2022/05/24 09:51:41;;;;;;;;;;;;;;;17.26;59.40;100448.69;5182237;28;20128;-75
2022/05/24 09:54:25;;;;;;;5.53;2.10;;;;;;;18.02;56.97;100456.50;5182239;28;19910;-76
2022/05/24 09:57:10;;;;;;;3.72;2.20;;;;;;;18.87;53.05;100464.13;5179788;28;20026;-75
2022/05/24 09:59:57;;;;;;;4.17;1.80;;;;;;;19.41;52.82;100451.66;5174099;28;20022;-75
2022/05/24 10:02:34;;;;;;;5.80;1.93;;;;;;;20.10;51.47;100448.03;5188803;28;20390;-75
2022/05/24 10:05:17;;;;;;;3.00;2.13;;;;;;;20.13;48.79;100441.53;5187440;28;20520;-77
2022/05/24 10:08:01;;;;;;;9.40;2.20;;;;;;;20.24;47.77;100443.03;5187331;28;20030;-77
2022/05/24 10:10:40;;;;;;;4.30;1.95;;;;;;;20.16;46.80;100452.66;5188471;28;20022;-76
2022/05/24 10:13:38;;;;;;;5.90;1.80;;;;;;;20.28;47.26;100470.97;5187459;28;20484;-76
2022/05/24 10:16:29;;;;;;;3.47;1.65;;;;;;;19.87;46.91;100458.41;5187863;28;20054;-76
2022/05/24 10:19:26;;;;;;;3.10;2.00;;;;;;;19.65;46.39;100471.31;5188945;28;20022;-75
2022/05/24 10:22:18;;;;;;;2.80;1.70;;;;;;;19.74;46.36;100470.34;5189844;28;20028;-75
2022/05/24 10:25:08;;;;;;;8.37;2.67;;;;;;;19.64;45.97;100473.13;5190718;28;20029;-75
2022/05/24 10:27:50;;;;;;;4.93;2.20;;;;;;;19.30;45.71;100474.84;5192170;28;20049;-75
2022/05/24 10:30:29;;;;;;;5.57;2.10;;;;;;;19.19;46.46;100473.31;5191970;28;20030;-75
2022/05/24 10:39:32;;;;;;;5.73;2.50;;;;;;;19.45;47.36;100479.53;5192116;28;20026;-75
2022/05/24 10:42:03;;;;;;;3.13;1.80;;;;;;;19.29;46.88;100483.78;5190087;28;20082;-76
2022/05/24 10:44:55;;;;;;;3.67;2.30;;;;;;;19.16;46.93;100481.59;5180336;28;21496;-76
2022/05/24 10:47:56;;;;;;;5.20;2.30;;;;;;;19.06;47.94;100494.09;5182845;28;20026;-76
2022/05/24 10:50:34;;;;;;;4.80;2.07;;;;;;;18.89;48.41;100493.16;5192802;28;20653;-77
2022/05/24 10:53:30;;;;;;;6.90;3.03;;;;;;;19.05;48.39;100493.25;5183757;28;20059;-78
2022/05/24 10:56:15;;;;;;;3.63;2.60;;;;;;;19.25;47.38;100492.25;5184931;28;20031;-81
2022/05/24 10:58:48;;;;;;;2.67;2.07;;;;;;;19.17;46.95;100495.66;5182094;28;20026;-74
2022/05/24 11:01:32;;;;;;;3.30;2.40;;;;;;;19.18;47.08;100481.44;5185558;28;20026;-75
2022/05/24 11:04:13;;;;;;;3.75;2.42;;;;;;;19.22;48.41;100490.72;5187215;28;20015;-75
2022/05/24 11:06:54;;;;;;;4.57;2.17;;;;;;;19.28;48.90;100492.75;5192966;28;20084;-76
2022/05/24 11:09:28;;;;;;;4.90;1.83;;;;;;;19.48;49.48;100487.19;5179438;28;20397;-77
2022/05/24 11:12:26;;;;;;;2.83;1.70;;;;;;;20.12;49.38;100487.72;5192827;28;20030;-77
2022/05/24 11:15:06;;;;;;;5.07;2.13;;;;;;;20.51;48.77;100488.94;5183747;28;20050;-78
2022/05/24 11:17:37;;;;;;;4.90;1.95;;;;;;;20.45;46.43;100478.94;5192668;28;20030;-78
2022/05/24 11:20:10;;;;;;;5.05;1.98;;;;;;;20.66;46.38;100478.44;5192784;28;20042;-78
2022/05/24 11:22:56;;;;;;;5.10;2.03;;;;;;;21.13;46.23;100500.00;5191306;28;20481;-77
2022/05/24 11:25:35;;;;;;;2.90;1.63;;;;;;;20.95;45.57;100490.41;5193125;28;20046;-79
2022/05/24 11:28:21;;;;;;;5.70;2.13;;;;;;;21.43;44.80;100497.59;5191979;28;20026;-79
2022/05/24 11:30:54;;;;;;;3.47;2.13;;;;;;;21.65;43.23;100503.13;5189549;28;20035;-78
2022/05/24 11:33:41;;;;;;;4.35;1.98;;;;;;;21.31;44.24;100505.09;5192290;28;20182;-78
2022/05/24 11:36:43;;;;;;;4.15;2.10;;;;;;;21.30;43.77;100491.94;5192878;28;20034;-76
2022/05/24 11:39:26;;;;;;;5.00;1.60;;;;;;;20.88;43.86;100502.69;5173473;28;20498;-77
2022/05/24 11:42:25;;;;;;;3.92;1.50;;;;;;;21.35;43.58;100516.25;5191542;28;20022;-77
2022/05/24 11:44:57;;;;;;;3.22;1.80;;;;;;;21.28;41.57;100511.59;5191749;28;20540;-78
2022/05/24 11:47:34;;;;;;;3.60;1.40;;;;;;;20.96;43.01;100515.19;5192541;28;20117;-77
2022/05/24 11:50:30;;;;;;;3.17;1.60;;;;;;;20.90;43.27;100512.16;5190474;28;20018;-77
2022/05/24 11:53:35;;;;;;;2.80;1.60;;;;;;;21.32;43.63;100522.75;5190176;28;20378;-78
2022/05/24 11:56:09;;;;;;;4.88;1.88;;;;;;;21.18;42.04;100542.94;5191252;28;20094;-78
2022/05/24 11:58:45;;;;;;;5.28;2.75;;;;;;;21.13;41.04;100526.63;5191981;28;20034;-78
2022/05/24 12:01:16;;;;;;;6.57;2.22;;;;;;;20.71;41.16;100529.31;5191062;28;20054;-77
2022/05/24 12:10:20;;;;;;;2.85;2.08;;;;;;;20.55;41.25;100546.94;5191622;28;20505;-77
2022/05/24 12:12:56;;;;;;;;;;;;;;;20.87;42.49;100546.28;5191210;28;20038;-77
2022/05/24 12:15:31;;;;;;;5.57;2.00;;;;;;;20.17;46.85;100570.50;5175620;28;19918;-78
2022/05/24 12:18:02;;;;;;;8.20;1.70;;;;;;;19.62;52.51;100583.22;5192934;28;20030;-77
2022/05/24 12:20:33;;;;;;;8.07;1.77;;;;;;;19.34;53.15;100593.00;5192318;28;20026;-78
2022/05/24 12:23:04;;;;;;;6.10;1.67;;;;;;;19.19;56.47;100594.56;5190028;28;20030;-78
2022/05/24 12:26:03;;;;;;;5.73;1.50;;;;;;;19.04;54.63;100597.72;5192998;28;20025;-78
2022/05/24 12:28:37;;;;;;;4.10;1.00;;;;;;;18.65;52.76;100590.97;5176829;28;20520;-77
2022/05/24 12:31:25;;;;;;;3.20;1.10;;;;;;;18.41;55.35;100602.16;5189046;28;20064;-78
2022/05/24 12:34:02;;;;;;;2.63;1.13;;;;;;;18.25;56.88;100588.59;5190619;28;20481;-78
2022/05/24 12:36:39;;;;;;;3.33;1.27;;;;;;;18.30;55.32;100595.25;5190160;28;20125;-78
2022/05/24 12:39:17;;;;;;;1.60;0.87;;;;;;;18.26;55.64;100605.31;5189690;28;20030;-78
2022/05/24 12:41:57;;;;;;;2.57;0.90;;;;;;;18.13;55.22;100626.84;5190424;28;20069;-78
2022/05/24 12:44:38;;;;;;;4.23;1.07;;;;;;;17.86;55.88;100618.72;5178047;28;20038;-78